Time;durP1;ratioP1;P1;durP2;ratioP2;P2;SDS_P1;SDS_P2;PMS_P1;PMS_P2;Temp;Humidity;BMP_temperature;BMP_pressure;BME280_temperature;BME280_humidity;BME280_pressure;Samples;Min_cycle;Max_cycle;Signal;HPM_P1;HPM_P2
2021/10/24 00:00:45;;;;;;;6.23;4.37;;;7.30;72.10;;;7.73;57.90;98656.00;4967437;28;20061;-40
2021/10/24 00:03:14;;;;;;;9.03;4.93;;;7.40;71.70;;;7.73;57.88;98656.81;4968182;28;20237;-41
2021/10/24 00:05:41;;;;;;;7.13;5.00;;;7.40;71.40;;;7.72;57.76;98663.09;4967666;28;20055;-41
2021/10/24 00:08:09;;;;;;;10.97;6.50;;;7.40;71.20;;;7.69;57.62;98665.97;4968099;28;20050;-41
2021/10/24 00:10:37;;;;;;;9.20;4.93;;;7.40;71.40;;;7.66;58.06;98658.28;4967419;28;20387;-41
2021/10/24 00:13:05;;;;;;;7.47;4.40;;;7.30;71.60;;;7.67;57.94;98665.25;4967478;28;20334;-41
2021/10/24 00:15:33;;;;;;;9.07;4.53;;;7.30;71.60;;;7.65;58.05;98656.56;4968237;28;20046;-41
2021/10/24 00:18:01;;;;;;;6.37;4.40;;;7.30;71.80;;;7.62;58.01;98656.84;4968624;28;20260;-41
2021/10/24 00:20:29;;;;;;;9.53;5.07;;;7.30;71.80;;;7.60;57.59;98656.06;4969003;28;20269;-41
2021/10/24 00:22:57;;;;;;;12.50;5.50;;;7.20;71.70;;;7.56;57.70;98650.19;4966999;28;20395;-41
2021/10/24 00:25:25;;;;;;;8.17;4.53;;;7.20;71.90;;;7.54;57.88;98656.56;4967650;28;20273;-41
2021/10/24 00:27:53;;;;;;;8.20;5.50;;;7.20;71.90;;;7.53;57.95;98657.53;4967066;28;20059;-41
2021/10/24 00:30:41;;;;;;;9.03;6.00;;;7.10;71.70;;;7.45;57.84;98655.47;4966107;28;20061;-41
2021/10/24 00:33:10;;;;;;;9.83;6.47;;;7.00;71.90;;;7.39;57.61;98658.59;4983608;28;20068;-41
2021/10/24 00:35:39;;;;;;;11.33;7.23;;;6.90;72.30;;;7.31;57.72;98656.50;4967056;28;20055;-41
2021/10/24 00:38:07;;;;;;;12.37;6.60;;;6.80;72.60;;;7.26;57.93;98656.84;4965443;28;20059;-41
2021/10/24 00:40:35;;;;;;;8.27;6.47;;;6.80;72.80;;;7.22;58.18;98647.44;4966441;28;20065;-41
2021/10/24 00:43:03;;;;;;;11.03;7.40;;;6.80;72.90;;;7.18;58.27;98646.00;4968108;28;20079;-41
2021/10/24 00:45:31;;;;;;;11.40;7.23;;;6.70;73.00;;;7.16;57.85;98642.63;4967398;28;20058;-41
2021/10/24 00:47:58;;;;;;;10.10;7.03;;;6.70;73.10;;;7.14;58.28;98641.03;4967173;28;20062;-41
2021/10/24 00:50:28;;;;;;;8.67;6.40;;;6.70;73.30;;;7.08;58.13;98640.53;4965443;28;20381;-41
2021/10/24 00:52:58;;;;;;;10.33;6.43;;;6.60;73.30;;;7.04;58.15;98641.72;4965894;28;20056;-41
2021/10/24 00:55:28;;;;;;;7.57;6.23;;;6.60;73.60;;;7.00;58.34;98634.97;4950116;28;20058;-41
2021/10/24 00:57:56;;;;;;;9.30;6.53;;;6.50;73.80;;;6.95;58.22;98636.28;4966201;28;20054;-41
2021/10/24 01:00:24;;;;;;;8.27;5.87;;;6.50;73.90;;;6.88;58.06;98628.78;4964256;28;20061;-41
2021/10/24 01:02:52;;;;;;;9.77;6.37;;;6.40;74.10;;;6.85;58.71;98625.53;4965205;28;20085;-41
2021/10/24 01:05:20;;;;;;;8.07;6.43;;;6.40;74.10;;;6.84;58.75;98621.19;4968171;28;20069;-41
2021/10/24 01:07:49;;;;;;;7.67;5.70;;;6.40;74.20;;;6.83;58.73;98627.44;4979524;28;20073;-41
2021/10/24 01:10:18;;;;;;;8.27;6.17;;;6.40;74.30;;;6.82;58.61;98620.44;4980812;28;20057;-41
2021/10/24 01:12:49;;;;;;;9.93;6.10;;;6.40;74.30;;;6.81;58.84;98619.63;4965061;28;20356;-41
2021/10/24 01:15:21;;;;;;;11.20;6.07;;;6.40;74.30;;;6.80;58.99;98619.72;4964639;28;20053;-42
2021/10/24 01:17:50;;;;;;;9.70;6.07;;;6.40;74.20;;;6.78;58.49;98611.06;4964567;28;20065;-41
2021/10/24 01:20:23;;;;;;;10.57;6.67;;;6.40;74.00;;;6.75;58.88;98622.72;4982651;28;20268;-41
2021/10/24 01:22:52;;;;;;;9.30;5.70;;;6.40;74.20;;;6.75;58.63;98609.47;4997891;28;20357;-41
2021/10/24 01:25:21;;;;;;;7.20;5.30;;;6.30;74.10;;;6.70;59.06;98595.75;4997931;28;20054;-41
2021/10/24 01:27:49;;;;;;;8.90;5.60;;;6.30;74.10;;;6.68;59.28;98597.66;4966275;28;20073;-42
2021/10/24 01:30:19;;;;;;;7.30;4.93;;;6.30;74.10;;;6.66;59.15;98597.75;4967074;28;20065;-41
2021/10/24 01:32:47;;;;;;;10.43;5.30;;;6.30;74.20;;;6.66;58.93;98600.41;4965652;28;20069;-41
2021/10/24 01:35:19;;;;;;;6.67;4.17;;;6.30;74.30;;;6.72;58.92;98598.28;4964309;28;20264;-42
2021/10/24 01:37:47;;;;;;;11.03;5.33;;;6.40;74.00;;;6.73;59.31;98592.00;4965002;28;20058;-41
2021/10/24 01:40:17;;;;;;;6.57;4.13;;;6.40;73.50;;;6.76;59.13;98589.16;4964939;28;20061;-41
2021/10/24 01:42:55;;;;;;;9.93;4.07;;;6.50;73.20;;;6.78;58.95;98592.53;4982428;28;20264;-42
2021/10/24 01:45:28;;;;;;;7.87;4.20;;;6.50;73.20;;;6.79;58.80;98595.06;4998043;28;20051;-42
2021/10/24 01:48:11;;;;;;;7.43;4.47;;;6.50;74.00;;;6.79;59.01;98584.47;4981521;28;20067;-41
2021/10/24 01:50:40;;;;;;;7.90;4.00;;;6.60;72.70;;;6.83;58.74;98583.28;4966751;28;20054;-41
2021/10/24 01:53:10;;;;;;;8.10;4.77;;;6.60;72.70;;;6.85;58.57;98577.88;4965089;28;20051;-42
2021/10/24 01:55:38;;;;;;;7.73;4.40;;;6.60;72.60;;;6.86;58.52;98574.25;4965810;28;20063;-41
2021/10/24 01:58:06;;;;;;;5.97;4.13;;;6.60;72.70;;;6.87;58.94;98574.16;4966296;28;20069;-41
2021/10/24 02:00:36;;;;;;;9.83;4.80;;;6.60;72.60;;;6.79;58.57;98571.25;4964309;28;20055;-41
2021/10/24 02:03:05;;;;;;;10.87;4.90;;;6.50;72.50;;;6.79;59.09;98575.69;4962659;28;20423;-41
2021/10/24 02:05:52;;;;;;;8.07;4.60;;;6.50;72.50;;;6.79;59.04;98576.53;4965486;28;20061;-42
2021/10/24 02:08:20;;;;;;;11.53;4.37;;;6.50;72.90;;;6.80;58.40;98575.56;4965247;28;20088;-41
2021/10/24 02:10:48;;;;;;;5.87;4.50;;;6.50;72.70;;;6.80;58.88;98561.50;4965979;28;20499;-41
2021/10/24 02:13:17;;;;;;;7.80;3.77;;;6.40;72.80;;;6.79;58.27;98565.13;4981959;28;20057;-42
2021/10/24 02:15:44;;;;;;;6.87;5.27;;;6.40;72.80;;;6.80;58.88;98564.13;4965599;28;20065;-41
2021/10/24 02:18:13;;;;;;;6.37;5.17;;;6.40;72.80;;;6.78;58.58;98558.13;4965194;28;20279;-41
2021/10/24 02:20:45;;;;;;;7.93;4.30;;;6.40;72.80;;;6.74;58.58;98556.66;4997454;28;20065;-42
2021/10/24 02:23:13;;;;;;;7.37;4.70;;;6.40;72.90;;;6.74;58.89;98554.00;4965482;28;20062;-42
2021/10/24 02:25:42;;;;;;;8.23;4.67;;;6.40;72.90;;;6.74;58.76;98548.72;4969712;28;20050;-41
2021/10/24 02:28:10;;;;;;;8.80;4.70;;;6.40;72.80;;;6.73;59.12;98553.19;4969415;28;20058;-41
2021/10/24 02:30:38;;;;;;;9.20;5.30;;;6.40;72.60;;;6.74;58.83;98552.19;4983846;28;20391;-42
2021/10/24 02:33:41;;;;;;;8.20;4.67;;;6.40;72.60;;;6.74;58.28;98544.25;4966878;28;20054;-42
2021/10/24 02:36:33;;;;;;;7.20;4.13;;;6.40;72.60;;;6.73;59.12;98552.31;4967460;28;20077;-42
2021/10/24 02:39:05;;;;;;;8.47;3.87;;;6.40;72.70;;;6.76;58.33;98550.28;4999650;28;20059;-41
2021/10/24 02:41:38;;;;;;;11.63;6.23;;;6.50;72.50;;;6.75;58.66;98538.03;4969215;28;20058;-41
2021/10/24 02:44:07;;;;;;;6.83;3.87;;;6.50;72.40;;;6.76;58.81;98541.50;4969051;28;20249;-41
2021/10/24 02:46:57;;;;;;;6.83;4.43;;;6.50;72.20;;;6.79;58.48;98546.59;4967441;28;20065;-41
2021/10/24 02:49:26;;;;;;;9.43;3.83;;;6.50;72.20;;;6.79;58.99;98546.59;4968477;28;20064;-41
2021/10/24 02:51:57;;;;;;;8.63;3.90;;;6.50;72.10;;;6.81;58.50;98540.22;4965242;28;20063;-41
2021/10/24 02:54:27;;;;;;;4.77;2.97;;;6.50;71.90;;;6.79;58.55;98541.28;4982497;28;20233;-42
2021/10/24 02:56:56;;;;;;;7.17;3.80;;;6.50;72.00;;;6.78;58.43;98536.94;4984668;28;20716;-42
2021/10/24 02:59:24;;;;;;;6.17;3.90;;;6.50;71.80;;;6.78;58.84;98534.28;4968444;28;20062;-42
2021/10/24 03:01:52;;;;;;;4.87;3.37;;;6.60;71.60;;;6.77;58.38;98535.28;4967793;28;20320;-41
2021/10/24 03:04:20;;;;;;;7.00;3.53;;;6.50;71.70;;;6.78;58.40;98534.28;5000740;28;20081;-41
2021/10/24 03:06:50;;;;;;;7.30;4.13;;;6.50;71.80;;;6.77;58.58;98532.63;4968130;28;20081;-41
2021/10/24 03:09:17;;;;;;;6.37;3.80;;;6.50;71.60;;;6.73;58.62;98536.44;4968527;28;20276;-41
2021/10/24 03:11:46;;;;;;;6.40;4.23;;;6.50;71.70;;;6.74;58.85;98536.31;4967757;28;20543;-41
2021/10/24 03:14:16;;;;;;;5.50;3.70;;;6.50;71.80;;;6.73;58.59;98537.31;4968836;28;20226;-41
2021/10/24 03:16:44;;;;;;;6.10;4.27;;;6.50;71.90;;;6.72;58.54;98534.75;4969544;28;20061;-42
2021/10/24 03:19:13;;;;;;;12.53;3.67;;;6.50;71.70;;;6.71;58.63;98531.28;4967140;28;20051;-41
2021/10/24 03:21:47;;;;;;;7.10;3.33;;;6.40;71.80;;;6.71;58.75;98533.94;4967490;28;20061;-42
2021/10/24 03:24:18;;;;;;;6.60;3.50;;;6.40;71.90;;;6.69;58.62;98536.69;5000434;28;20058;-42
2021/10/24 03:26:46;;;;;;;7.10;3.87;;;6.30;72.10;;;6.68;58.70;98531.50;4967782;28;20065;-42
2021/10/24 03:29:15;;;;;;;6.20;3.80;;;6.30;72.10;;;6.66;58.52;98531.59;4983271;28;20081;-41
2021/10/24 03:31:44;;;;;;;4.73;3.40;;;6.40;72.10;;;6.67;58.05;98535.13;4967192;28;20066;-42
2021/10/24 03:34:13;;;;;;;5.27;3.57;;;6.30;72.10;;;6.62;58.34;98537.25;4967884;28;20257;-41
2021/10/24 03:36:41;;;;;;;6.37;3.90;;;6.30;72.20;;;6.60;58.18;98536.53;4966297;28;20057;-42
2021/10/24 03:39:09;;;;;;;10.57;5.60;;;6.30;72.30;;;6.60;58.81;98539.19;4982651;28;20051;-42
2021/10/24 03:41:38;;;;;;;5.83;3.47;;;6.30;72.00;;;6.58;58.79;98535.81;4968139;28;20055;-42
2021/10/24 03:44:07;;;;;;;7.57;3.77;;;6.30;72.10;;;6.57;58.15;98536.75;4983947;28;20238;-41
2021/10/24 03:46:35;;;;;;;6.23;3.70;;;6.30;72.30;;;6.55;58.47;98542.13;4983918;28;20357;-41
2021/10/24 03:49:04;;;;;;;10.57;4.50;;;6.30;72.30;;;6.57;58.75;98540.25;4998936;28;20065;-41
2021/10/24 03:51:32;;;;;;;10.80;3.63;;;6.30;72.30;;;6.57;58.79;98539.38;4983339;28;20051;-41
2021/10/24 03:54:01;;;;;;;6.97;3.53;;;6.30;72.30;;;6.56;58.21;98535.06;4999697;28;20047;-41
2021/10/24 03:56:29;;;;;;;5.73;3.60;;;6.30;72.30;;;6.56;58.66;98543.84;4967329;28;20369;-41
2021/10/24 03:58:57;;;;;;;5.90;3.37;;;6.30;72.20;;;6.58;58.21;98541.09;4968041;28;20050;-41
2021/10/24 04:01:25;;;;;;;4.83;3.00;;;6.30;72.20;;;6.58;58.57;98541.94;4982719;28;20065;-41
2021/10/24 04:03:53;;;;;;;5.23;3.53;;;6.30;72.10;;;6.57;58.38;98544.69;4966489;28;20174;-41
2021/10/24 04:06:22;;;;;;;4.93;3.10;;;6.20;72.00;;;6.55;58.13;98549.25;4967252;28;20061;-41
2021/10/24 04:08:50;;;;;;;4.53;3.43;;;6.20;72.10;;;6.52;58.13;98547.69;4966297;28;20250;-41
2021/10/24 04:11:20;;;;;;;5.43;3.80;;;6.20;72.30;;;6.49;58.40;98548.75;4984017;28;20069;-41
2021/10/24 04:13:48;;;;;;;5.63;3.20;;;6.10;72.50;;;6.47;58.40;98555.94;4967267;28;20383;-41
2021/10/24 04:16:16;;;;;;;7.97;3.60;;;6.10;72.60;;;6.48;58.44;98552.34;4982534;28;20051;-41
2021/10/24 04:19:02;;;;;;;5.43;2.87;;;6.20;72.60;;;6.47;59.13;98547.16;4981694;28;20214;-42
2021/10/24 04:21:32;;;;;;;5.23;3.20;;;6.20;72.30;;;6.48;58.43;98544.41;4984016;28;20054;-41
2021/10/24 04:24:00;;;;;;;7.53;3.60;;;6.20;72.30;;;6.46;58.24;98548.97;4967506;28;20054;-41
2021/10/24 04:26:28;;;;;;;5.77;3.30;;;6.10;72.40;;;6.45;58.85;98549.06;4983685;28;20410;-41
2021/10/24 04:28:57;;;;;;;5.43;3.00;;;6.10;72.50;;;6.45;58.83;98538.50;4980569;28;20061;-41
2021/10/24 04:31:25;;;;;;;6.57;3.60;;;6.10;72.50;;;6.45;58.98;98547.28;4967293;28;20056;-42
2021/10/24 04:33:53;;;;;;;10.83;5.13;;;6.10;72.60;;;6.43;58.13;98541.25;4965276;28;20059;-41
2021/10/24 04:36:22;;;;;;;6.40;4.60;;;6.00;72.30;;;6.40;58.16;98540.66;4966444;28;20043;-41
2021/10/24 04:38:50;;;;;;;5.63;3.67;;;6.00;72.40;;;6.38;58.53;98539.91;4968303;28;20054;-42
2021/10/24 04:41:18;;;;;;;10.17;5.77;;;6.00;72.70;;;6.37;58.51;98544.34;4965392;28;20378;-42
2021/10/24 04:43:49;;;;;;;12.97;9.07;;;6.00;72.70;;;6.35;59.02;98538.34;4965895;28;20069;-41
2021/10/24 04:46:20;;;;;;;7.67;6.40;;;6.00;72.70;;;6.34;58.96;98541.09;4966319;28;20402;-41
2021/10/24 04:48:48;;;;;;;10.50;7.50;;;6.00;72.70;;;6.31;58.83;98535.06;4965303;28;20059;-41
2021/10/24 04:51:16;;;;;;;11.03;7.33;;;5.90;72.70;;;6.29;58.29;98530.84;4966914;28;20373;-42
2021/10/24 04:53:44;;;;;;;10.50;6.53;;;5.90;72.80;;;6.24;58.00;98533.84;4967143;28;20121;-41
2021/10/24 04:56:12;;;;;;;12.43;7.57;;;5.80;72.50;;;6.18;58.53;98528.97;4966130;28;20482;-41
2021/10/24 04:58:40;;;;;;;9.07;6.90;;;5.80;72.80;;;6.17;58.40;98537.88;4981255;28;20050;-41
2021/10/24 05:01:09;;;;;;;9.00;5.87;;;5.70;72.90;;;6.14;58.23;98530.16;4981269;28;20062;-42
2021/10/24 05:03:38;;;;;;;13.93;6.27;;;5.70;72.90;;;6.11;58.54;98533.88;4966592;28;20550;-41
2021/10/24 05:06:07;;;;;;;8.40;6.47;;;5.70;72.70;;;6.07;58.53;98527.13;4967080;28;20061;-42
2021/10/24 05:08:37;;;;;;;8.43;5.03;;;5.70;72.70;;;6.05;58.24;98528.22;4967132;28;20076;-41
2021/10/24 05:11:04;;;;;;;7.77;6.67;;;5.70;72.80;;;5.97;58.88;98522.63;4965312;28;20051;-41
2021/10/24 05:13:33;;;;;;;8.10;5.13;;;5.60;73.00;;;5.94;58.96;98523.66;4980722;28;20242;-42
2021/10/24 05:16:01;;;;;;;7.13;5.83;;;5.50;73.20;;;5.89;58.58;98520.50;4965123;28;20227;-41
2021/10/24 05:18:29;;;;;;;11.03;5.47;;;5.50;73.40;;;5.80;59.12;98519.38;4963816;28;20054;-42
2021/10/24 05:20:57;;;;;;;7.53;5.03;;;5.40;73.60;;;5.78;59.16;98515.13;4965348;28;20344;-41
2021/10/24 05:23:25;;;;;;;8.17;5.00;;;5.40;73.70;;;5.76;58.48;98519.66;4982253;28;20071;-41
2021/10/24 05:25:56;;;;;;;8.20;4.47;;;5.40;73.90;;;5.73;58.61;98523.38;4982248;28;20391;-41
2021/10/24 05:28:25;;;;;;;7.10;4.80;;;5.30;73.80;;;5.71;59.08;98514.72;4964799;28;20060;-41
2021/10/24 05:30:54;;;;;;;9.07;6.47;;;5.30;74.00;;;5.67;58.50;98524.66;4981652;28;20057;-41
2021/10/24 05:33:23;;;;;;;8.17;6.03;;;5.30;74.10;;;5.63;59.15;98517.06;4980017;28;20273;-41
2021/10/24 05:36:13;;;;;;;8.73;5.33;;;5.20;74.00;;;5.58;59.05;98519.19;4970564;28;20053;-42
2021/10/24 05:38:41;;;;;;;8.20;5.33;;;5.20;74.20;;;5.57;59.66;98517.50;4981966;28;20061;-41
2021/10/24 05:41:14;;;;;;;14.37;4.57;;;5.20;74.50;;;5.62;59.18;98512.72;4981897;28;20069;-41
2021/10/24 05:43:42;;;;;;;5.93;4.77;;;5.20;74.60;;;5.61;59.57;98511.06;4981890;28;20767;-42
2021/10/24 05:46:11;;;;;;;9.83;4.93;;;5.20;74.70;;;5.58;59.18;98512.09;4965372;28;20062;-42
2021/10/24 05:48:39;;;;;;;7.40;4.53;;;5.20;74.90;;;5.52;59.19;98508.13;4980693;28;20055;-41
2021/10/24 05:51:19;;;;;;;7.23;4.77;;;5.10;75.20;;;5.49;59.87;98512.78;4996591;28;20059;-41
2021/10/24 05:53:47;;;;;;;9.83;5.30;;;5.10;75.80;;;5.50;59.92;98510.00;4964973;28;20055;-42
2021/10/24 05:56:22;;;;;;;6.70;4.53;;;5.10;75.80;;;5.49;59.57;98505.69;4965712;28;20070;-41
2021/10/24 05:58:51;;;;;;;9.70;4.87;;;5.10;75.50;;;5.49;59.82;98508.31;4964863;28;20058;-42
2021/10/24 06:01:45;;;;;;;7.65;5.07;;;5.10;75.40;;;5.48;60.06;98506.63;4969787;28;20059;-41
2021/10/24 06:04:31;;;;;;;8.43;4.97;;;5.10;75.00;;;5.41;59.52;98512.44;4971718;28;20053;-42
2021/10/24 06:07:26;;;;;;;7.97;5.20;;;5.10;75.80;;;5.36;59.70;98506.66;4999762;28;20063;-41
2021/10/24 06:10:01;;;;;;;9.60;5.87;;;4.90;76.30;;;5.35;59.44;98505.81;4984184;28;20264;-41
2021/10/24 06:15:02;;;;;;;7.17;5.47;;;5.00;75.70;;;5.35;59.93;98511.09;4970866;28;20085;-41
2021/10/24 06:17:31;;;;;;;20.97;6.10;;;4.90;75.40;;;5.35;59.44;98505.81;4969802;28;20055;-41
2021/10/24 06:20:00;;;;;;;7.80;5.37;;;4.90;75.70;;;5.33;60.44;98507.69;4984578;28;20360;-41
2021/10/24 06:22:29;;;;;;;11.67;4.73;;;4.90;76.20;;;5.32;60.37;98516.59;4984616;28;20066;-41
2021/10/24 06:24:57;;;;;;;8.80;6.13;;;4.90;76.60;;;5.28;60.12;98508.03;4967899;28;20055;-42
2021/10/24 06:27:29;;;;;;;10.57;6.40;;;4.90;77.00;;;5.28;60.93;98508.03;4968863;28;20059;-41
2021/10/24 06:29:58;;;;;;;9.77;6.03;;;4.90;77.40;;;5.27;60.17;98516.06;4968933;28;20081;-41
2021/10/24 06:32:52;;;;;;;10.43;5.70;;;4.80;77.60;;;5.24;61.25;98517.13;4977444;28;20051;-41
2021/10/24 06:35:49;;;;;;;8.93;5.00;;;4.80;77.90;;;5.26;60.96;98524.94;4951383;28;20298;-41
2021/10/24 06:38:32;;;;;;;6.63;4.70;;;4.80;78.10;;;5.26;60.98;98527.56;4973420;28;20053;-41
2021/10/24 06:41:19;;;;;;;10.97;6.47;;;4.80;78.10;;;5.27;60.47;98516.06;4970776;28;20053;-41
2021/10/24 06:44:05;;;;;;;5.93;4.73;;;4.80;78.00;;;5.26;61.16;98517.03;4973014;28;20481;-42
2021/10/24 06:46:52;;;;;;;8.63;4.27;;;4.90;78.20;;;5.28;60.58;98520.41;4973757;28;20151;-41
2021/10/24 06:49:55;;;;;;;6.20;4.87;;;4.90;78.20;;;5.32;60.76;98527.97;4987144;28;20062;-41
2021/10/24 06:52:59;;;;;;;6.00;3.90;;;5.00;78.00;;;5.36;61.35;98525.16;4928370;29;20047;-41
2021/10/24 06:55:45;;;;;;;7.37;4.63;;;5.00;77.70;;;5.40;61.15;98519.53;4965148;28;20057;-41
2021/10/24 06:58:31;;;;;;;6.70;4.20;;;5.10;77.80;;;5.41;61.16;98517.72;4967990;28;20061;-42
2021/10/24 07:01:18;;;;;;;7.63;4.90;;;5.10;77.80;;;5.43;60.73;98521.09;4972389;28;20057;-42
2021/10/24 07:04:10;;;;;;;7.60;4.40;;;5.10;77.90;;;5.48;61.21;98521.63;4966270;28;20369;-42
2021/10/24 07:07:05;;;;;;;7.30;4.10;;;5.10;77.80;;;5.51;60.55;98524.91;4982199;28;20065;-42
2021/10/24 07:09:52;;;;;;;7.03;3.87;;;5.20;77.60;;;5.53;60.99;98528.28;4970407;28;20053;-41
2021/10/24 07:12:20;;;;;;;8.90;4.53;;;5.20;77.70;;;5.60;61.12;98528.69;4965051;28;20047;-42
2021/10/24 07:14:48;;;;;;;8.87;3.73;;;5.30;77.50;;;5.66;61.31;98520.34;4966878;28;20047;-41
2021/10/24 07:17:16;;;;;;;6.03;4.23;;;5.40;77.00;;;5.75;61.30;98521.47;4965327;28;20236;-41
2021/10/24 07:19:44;;;;;;;8.20;3.80;;;5.50;76.90;;;5.83;60.82;98523.56;4982421;28;20055;-41
2021/10/24 07:22:15;;;;;;;7.37;3.90;;;5.60;76.40;;;5.87;60.82;98525.03;4965789;28;20313;-42
2021/10/24 07:25:05;;;;;;;14.20;5.43;;;5.70;76.30;;;5.94;61.71;98528.94;4966486;28;20392;-42
2021/10/24 07:27:41;;;;;;;8.93;5.13;;;5.80;76.20;;;5.99;60.58;98526.84;4983582;28;20069;-42
2021/10/24 07:30:11;;;;;;;9.30;4.43;;;5.80;76.00;;;6.02;60.55;98523.13;4966742;28;20066;-42
2021/10/24 07:32:47;;;;;;;9.13;4.47;;;5.80;76.00;;;6.06;61.29;98529.88;4967802;28;20387;-42
2021/10/24 07:35:34;;;;;;;7.83;3.93;;;5.80;75.90;;;6.10;60.55;98526.91;4968338;28;20379;-41
2021/10/24 07:38:11;;;;;;;6.67;4.07;;;5.90;76.20;;;6.17;61.07;98527.31;4981228;28;20067;-41
2021/10/24 07:40:45;;;;;;;5.93;4.30;;;6.00;76.20;;;6.20;60.60;98535.00;4981655;28;20047;-41
2021/10/24 07:43:21;;;;;;;7.90;4.33;;;6.00;76.30;;;6.24;60.51;98530.34;4981413;28;20062;-41
2021/10/24 07:45:52;;;;;;;9.23;5.23;;;6.10;76.80;;;6.27;61.38;98528.31;4964461;28;20349;-41
2021/10/24 07:48:28;;;;;;;9.80;5.33;;;6.10;76.80;;;6.30;61.08;98522.81;4966992;28;20046;-41
2021/10/24 07:50:57;;;;;;;10.93;5.50;;;6.10;77.00;;;6.34;60.82;98535.78;4965524;28;20062;-41
2021/10/24 07:53:29;;;;;;;9.00;6.43;;;6.10;77.10;;;6.36;60.86;98532.09;4965052;28;20345;-42
2021/10/24 07:56:02;;;;;;;8.53;5.30;;;6.10;77.20;;;6.36;61.34;98537.38;4965371;28;20051;-42
2021/10/24 07:58:49;;;;;;;11.20;5.83;;;6.20;77.50;;;6.40;61.09;98535.38;4967081;28;20064;-42
2021/10/24 08:01:17;;;;;;;7.70;5.50;;;6.20;77.70;;;6.42;61.59;98530.81;4978885;28;20051;-42
2021/10/24 08:03:46;;;;;;;8.70;5.03;;;6.20;77.70;;;6.44;61.93;98532.38;4963999;28;20057;-42
2021/10/24 08:06:22;;;;;;;7.00;5.07;;;6.20;77.90;;;6.49;61.27;98532.03;4965221;28;20387;-41
2021/10/24 08:08:53;;;;;;;8.67;4.93;;;6.30;78.20;;;6.52;61.71;98526.50;4965613;28;20252;-41
2021/10/24 08:11:22;;;;;;;9.03;5.57;;;6.30;78.30;;;6.59;62.01;98524.25;4963201;28;20058;-41
2021/10/24 08:13:52;;;;;;;7.63;4.80;;;6.50;77.80;;;6.66;61.68;98525.47;4964231;28;20042;-42
2021/10/24 08:16:20;;;;;;;8.27;4.03;;;6.60;76.60;;;6.73;61.56;98520.56;4966903;28;20072;-42
2021/10/24 08:18:49;;;;;;;6.37;4.07;;;6.70;76.30;;;6.79;61.65;98518.31;4964906;28;20058;-42
2021/10/24 08:21:29;;;;;;;8.00;4.63;;;6.70;76.00;;;6.85;61.69;98517.00;4963640;28;20552;-42
2021/10/24 08:23:58;;;;;;;6.43;4.73;;;6.80;75.90;;;6.92;61.22;98512.94;4950741;28;20075;-42
2021/10/24 08:26:27;;;;;;;8.00;4.57;;;6.80;76.60;;;6.97;61.03;98512.56;4965335;28;20073;-42
2021/10/24 08:28:57;;;;;;;9.83;7.40;;;6.90;76.40;;;7.03;61.03;98512.09;4964311;28;20268;-42
2021/10/24 08:31:49;;;;;;;8.93;5.40;;;6.90;75.50;;;7.06;60.99;98509.22;4967232;28;20049;-42
2021/10/24 08:34:19;;;;;;;7.20;4.68;;;7.00;75.40;;;7.13;60.75;98514.88;4964111;28;20127;-41
2021/10/24 08:36:48;;;;;;;8.73;4.70;;;7.10;75.20;;;7.17;60.87;98516.34;4967275;28;20061;-42
2021/10/24 08:39:16;;;;;;;10.53;4.97;;;7.10;75.10;;;7.23;61.32;98506.13;4967975;28;20061;-41
2021/10/24 08:41:49;;;;;;;12.57;6.77;;;7.20;74.90;;;7.30;60.90;98511.78;4966713;28;20065;-42
2021/10/24 08:44:17;;;;;;;8.90;5.80;;;7.20;75.20;;;7.34;61.08;98507.09;4966543;28;20102;-41
2021/10/24 08:46:46;;;;;;;9.10;4.80;;;7.30;75.40;;;7.37;60.97;98520.94;4967712;28;20230;-41
2021/10/24 08:49:14;;;;;;;11.53;7.27;;;7.30;75.50;;;7.44;61.10;98518.63;4966150;28;20057;-41
2021/10/24 08:51:42;;;;;;;13.43;8.03;;;7.40;75.30;;;7.48;61.33;98517.44;4966171;28;20068;-41
2021/10/24 08:54:11;;;;;;;12.03;7.50;;;7.40;75.10;;;7.54;61.16;98513.47;4964995;28;20367;-41
2021/10/24 08:56:39;;;;;;;8.17;5.77;;;7.50;75.10;;;7.57;61.12;98515.88;4965930;28;20224;-40
2021/10/24 08:59:07;;;;;;;12.03;6.83;;;7.50;75.20;;;7.61;60.99;98518.16;4966857;28;20050;-40
2021/10/24 09:01:52;;;;;;;8.53;5.47;;;7.60;75.20;;;7.67;61.18;98517.66;4966478;28;20065;-40
2021/10/24 09:04:22;;;;;;;8.93;5.03;;;7.60;75.10;;;7.71;61.26;98520.91;4966159;28;20050;-40
2021/10/24 09:06:57;;;;;;;8.47;5.73;;;7.70;75.10;;;7.75;61.10;98518.88;4966952;28;20053;-40
2021/10/24 09:09:31;;;;;;;11.97;7.93;;;7.70;75.40;;;7.77;61.20;98509.00;4965551;28;20361;-40
2021/10/24 09:12:02;;;;;;;10.17;7.47;;;7.60;75.70;;;7.80;61.12;98514.91;4965921;28;20381;-40
2021/10/24 09:14:48;;;;;;;9.07;7.13;;;7.70;76.10;;;7.85;61.36;98514.50;4964880;28;20527;-40
2021/10/24 09:17:29;;;;;;;16.50;9.00;;;7.80;76.30;;;7.87;61.74;98502.84;4966682;28;20047;-40
2021/10/24 09:20:04;;;;;;;13.10;7.33;;;7.80;76.30;;;7.94;61.83;98510.31;4966625;28;20365;-40
2021/10/24 09:22:41;;;;;;;11.77;6.87;;;7.90;76.30;;;7.97;61.59;98497.63;4966290;28;20047;-40
2021/10/24 09:25:23;;;;;;;8.57;6.10;;;7.90;76.20;;;8.01;61.66;98508.84;4965347;28;20055;-41
2021/10/24 09:27:54;;;;;;;9.63;5.37;;;8.00;76.00;;;8.05;61.43;98505.81;4965210;28;20058;-40
2021/10/24 09:30:36;;;;;;;8.63;6.37;;;8.00;76.00;;;8.09;61.36;98496.63;4951015;28;20062;-41
2021/10/24 09:33:09;;;;;;;9.17;5.43;;;8.10;76.00;;;8.15;61.22;98505.91;4966446;28;20063;-41
2021/10/24 09:35:47;;;;;;;9.57;6.00;;;8.20;75.70;;;8.21;61.40;98497.44;4965124;28;20245;-41
2021/10/24 09:38:21;;;;;;;6.47;5.53;;;8.20;76.30;;;8.28;61.06;98497.81;4969234;28;20059;-40
2021/10/24 09:41:09;;;;;;;10.23;5.82;;;8.30;75.30;;;8.33;61.44;98494.75;4961617;28;20055;-41
2021/10/24 09:43:37;;;;;;;10.60;5.97;;;8.30;75.30;;;8.36;61.12;98490.03;4966451;28;20078;-40
2021/10/24 09:46:06;;;;;;;9.27;6.27;;;8.40;75.30;;;8.40;61.22;98491.47;4965942;28;20400;-40
2021/10/24 09:48:36;;;;;;;8.40;5.73;;;8.40;75.00;;;8.45;61.05;98496.41;4964661;28;20066;-40
2021/10/24 09:51:13;;;;;;;6.63;5.23;;;8.40;74.80;;;8.50;61.07;98496.06;4965646;28;20067;-40
2021/10/24 09:53:45;;;;;;;9.50;5.63;;;8.50;74.90;;;8.54;61.01;98489.53;4966011;28;20061;-41
2021/10/24 09:56:18;;;;;;;6.87;4.83;;;8.50;74.60;;;8.59;61.00;98490.00;4966495;28;20050;-40
2021/10/24 09:58:53;;;;;;;8.73;4.90;;;8.60;74.50;;;8.62;60.87;98490.56;4966446;28;20054;-40
2021/10/24 10:01:21;;;;;;;8.97;4.97;;;8.60;74.50;;;8.69;60.66;98490.91;4965901;28;20062;-41
2021/10/24 10:03:50;;;;;;;9.70;5.67;;;8.70;74.40;;;8.75;60.93;98492.19;4966026;28;20053;-40
2021/10/24 10:06:24;;;;;;;7.50;5.20;;;8.70;74.20;;;8.79;60.76;98493.63;4966031;28;20060;-41
2021/10/24 10:08:52;;;;;;;7.37;5.73;;;8.80;74.10;;;8.82;60.70;98488.03;4964325;28;20058;-40
2021/10/24 10:11:39;;;;;;;8.67;5.27;;;8.90;74.30;;;8.89;60.84;98491.88;4966099;28;20345;-40
2021/10/24 10:14:34;;;;;;;6.60;5.13;;;8.90;74.20;;;8.95;60.70;98479.88;4964315;28;20056;-40
2021/10/24 10:17:06;;;;;;;;;;;9.00;73.90;;;8.98;60.71;98480.47;4965914;28;20240;-40
2021/10/24 10:19:45;;;;;;;6.00;4.90;;;9.00;73.50;;;9.06;60.26;98479.81;4965672;28;19922;-40
2021/10/24 10:22:34;;;;;;;5.27;4.40;;;9.10;73.70;;;9.11;60.34;98474.97;4964875;28;20374;-40
2021/10/24 10:25:08;;;;;;;7.10;5.00;;;9.20;73.10;;;9.16;60.27;98477.22;4965149;28;20344;-40
2021/10/24 10:27:39;;;;;;;7.28;5.45;;;9.20;73.40;;;9.19;60.40;98477.78;4964335;28;20069;-40
2021/10/24 10:30:43;;;;;;;8.70;5.37;;;9.30;73.60;;;9.25;60.25;98474.59;4963765;28;20088;-41
2021/10/24 10:33:34;;;;;;;9.98;6.43;;;9.30;72.90;;;9.33;60.05;98479.25;4966228;28;20059;-40
2021/10/24 10:36:06;;;;;;;7.93;5.37;;;9.40;72.70;;;9.39;60.16;98472.56;4965192;28;20053;-40
2021/10/24 10:38:40;;;;;;;9.10;5.57;;;9.40;72.80;;;9.43;60.15;98472.16;4964029;28;20333;-40
2021/10/24 10:41:15;;;;;;;8.57;6.07;;;9.50;73.10;;;9.47;59.86;98462.09;4965588;28;20230;-40
2021/10/24 10:44:08;;;;;;;8.07;5.00;;;9.60;72.60;;;9.51;59.83;98466.16;4965179;28;20068;-40
2021/10/24 10:46:36;;;;;;;5.90;4.50;;;9.60;72.00;;;9.55;59.84;98466.75;4965606;28;20268;-40
2021/10/24 10:49:32;;;;;;;8.83;5.67;;;9.70;72.70;;;9.62;59.68;98462.59;4969611;28;20062;-40
2021/10/24 10:52:38;;;;;;;6.77;4.53;;;9.70;71.90;;;9.66;59.46;98450.69;4966891;28;20353;-40
2021/10/24 10:55:06;;;;;;;8.80;5.23;;;9.80;71.50;;;9.71;59.53;98452.94;4967123;28;20057;-40
2021/10/24 10:57:34;;;;;;;14.50;5.43;;;9.80;71.90;;;9.76;59.54;98456.03;4968945;28;20321;-41
2021/10/24 11:00:34;;;;;;;6.33;4.40;;;9.80;71.70;;;9.78;59.09;98441.63;4969645;28;20241;-41